createdAt,value
2017-07-06T00:00:38.345Z,101081.25
2017-07-06T00:03:05.560Z,101083.97
2017-07-06T00:05:31.993Z,101076.42
2017-07-06T00:07:58.534Z,101077.09
2017-07-06T00:10:24.990Z,101073.95
2017-07-06T00:12:51.361Z,101073.23
2017-07-06T00:15:17.745Z,101075.25
2017-07-06T00:17:44.110Z,101070.86
2017-07-06T00:20:10.461Z,101073.44
2017-07-06T00:22:36.829Z,101069.50
2017-07-06T00:25:03.217Z,101065.56
2017-07-06T00:27:29.579Z,101072.28
2017-07-06T00:29:55.947Z,101072.53
2017-07-06T00:32:22.298Z,101073.16
2017-07-06T00:34:48.645Z,101079.27
2017-07-06T00:37:15.006Z,101074.14
2017-07-06T00:39:41.363Z,101083.75
2017-07-06T00:42:07.733Z,101085.25
2017-07-06T00:44:34.104Z,101081.14
2017-07-06T00:47:00.458Z,101079.66
2017-07-06T00:49:26.807Z,101081.67
2017-07-06T00:51:53.163Z,101083.56
2017-07-06T00:54:19.522Z,101081.72
2017-07-06T00:56:45.867Z,101073.75
2017-07-06T00:59:12.231Z,101078.91
2017-07-06T01:01:38.599Z,101079.36
2017-07-06T01:04:04.958Z,101088.63
2017-07-06T01:06:31.313Z,101082.88
2017-07-06T01:08:57.672Z,101088.11
2017-07-06T01:11:24.050Z,101078.88
2017-07-06T01:13:50.405Z,101078.78
2017-07-06T01:16:16.793Z,101082.67
2017-07-06T01:18:43.121Z,101079.00
2017-07-06T01:21:09.474Z,101086.28
2017-07-06T01:23:35.888Z,101077.05
2017-07-06T01:26:02.248Z,101081.98
2017-07-06T01:28:28.613Z,101085.48
2017-07-06T01:30:55.014Z,101082.11
2017-07-06T01:33:21.384Z,101079.52
2017-07-06T01:35:47.746Z,101077.66
2017-07-06T01:38:14.123Z,101078.75
2017-07-06T01:40:40.549Z,101082.28
2017-07-06T01:43:06.960Z,101084.48
2017-07-06T01:45:33.392Z,101082.53
2017-07-06T01:47:59.771Z,101083.06
2017-07-06T01:50:26.159Z,101081.30
2017-07-06T01:52:52.534Z,101083.28
2017-07-06T01:55:18.934Z,101084.13
2017-07-06T01:57:45.373Z,101084.50
2017-07-06T02:00:11.792Z,101093.18
2017-07-06T02:02:38.168Z,101093.20
2017-07-06T02:05:04.535Z,101093.25
2017-07-06T02:07:30.902Z,101093.27
2017-07-06T02:09:57.289Z,101083.75
2017-07-06T02:12:23.630Z,101088.58
2017-07-06T02:14:49.971Z,101086.50
2017-07-06T02:17:16.417Z,101084.29
2017-07-06T02:19:42.844Z,101091.84
2017-07-06T02:22:09.225Z,101098.03
2017-07-06T02:24:35.566Z,101097.72
2017-07-06T02:27:01.941Z,101097.22
2017-07-06T02:29:28.308Z,101096.95
2017-07-06T02:31:54.645Z,101099.98
2017-07-06T02:34:21.000Z,101095.68
2017-07-06T02:36:47.361Z,101095.89
2017-07-06T02:39:13.706Z,101091.70
2017-07-06T02:41:40.075Z,101095.44
2017-07-06T02:44:06.429Z,101092.46
2017-07-06T02:46:32.772Z,101095.92
2017-07-06T02:48:59.093Z,101094.13
2017-07-06T02:51:25.438Z,101086.22
2017-07-06T02:53:51.787Z,101089.36
2017-07-06T02:56:18.150Z,101091.91
2017-07-06T02:58:44.531Z,101084.17
2017-07-06T03:01:10.863Z,101091.13
2017-07-06T03:03:37.210Z,101098.14
2017-07-06T03:06:03.574Z,101099.84
2017-07-06T03:08:29.954Z,101100.16
2017-07-06T03:10:56.357Z,101094.57
2017-07-06T03:13:22.792Z,101097.13
2017-07-06T03:15:49.197Z,101102.09
2017-07-06T03:18:15.565Z,101096.34
2017-07-06T03:20:41.939Z,101095.65
2017-07-06T03:23:08.288Z,101105.91
2017-07-06T03:25:34.678Z,101110.75
2017-07-06T03:28:01.044Z,101119.23
2017-07-06T03:30:27.452Z,101104.33
2017-07-06T03:32:53.828Z,101103.66
2017-07-06T03:35:20.211Z,101105.33
2017-07-06T03:37:46.581Z,101094.30
2017-07-06T03:40:12.952Z,101103.58
2017-07-06T03:42:39.320Z,101104.47
2017-07-06T03:45:05.671Z,101111.02
2017-07-06T03:47:32.054Z,101107.47
2017-07-06T03:49:58.434Z,101104.13
2017-07-06T03:52:24.789Z,101109.86
2017-07-06T03:54:51.119Z,101107.96
2017-07-06T03:57:17.491Z,101106.12
2017-07-06T03:59:43.864Z,101108.11
2017-07-06T04:02:10.219Z,101107.33
2017-07-06T04:04:36.556Z,101116.68
2017-07-06T04:07:02.969Z,101118.96
2017-07-06T04:09:29.299Z,101116.27
2017-07-06T04:11:55.672Z,101116.94
2017-07-06T04:14:22.005Z,101116.39
2017-07-06T04:16:48.376Z,101123.83
2017-07-06T04:19:14.777Z,101128.94
2017-07-06T04:21:41.112Z,101130.83
2017-07-06T04:24:07.471Z,101132.30
2017-07-06T04:26:33.842Z,101133.80
2017-07-06T04:29:00.210Z,101142.25
2017-07-06T04:31:26.548Z,101135.78
2017-07-06T04:33:52.888Z,101139.48
2017-07-06T04:36:19.245Z,101140.11
2017-07-06T04:38:45.619Z,101138.66
2017-07-06T04:41:11.984Z,101137.11
2017-07-06T04:43:38.332Z,101133.63
2017-07-06T04:46:04.678Z,101135.98
2017-07-06T04:48:31.058Z,101135.08
2017-07-06T04:50:57.376Z,101133.67
2017-07-06T04:53:23.764Z,101130.90
2017-07-06T04:55:50.153Z,101133.64
2017-07-06T04:58:16.532Z,101127.38
2017-07-06T05:00:42.878Z,101136.56
2017-07-06T05:03:09.242Z,101141.54
2017-07-06T05:05:35.597Z,101139.66
2017-07-06T05:08:01.941Z,101141.97
2017-07-06T05:10:28.299Z,101136.81
2017-07-06T05:12:54.708Z,101133.06
2017-07-06T05:15:21.073Z,101132.57
2017-07-06T05:17:47.411Z,101137.20
2017-07-06T05:20:13.770Z,101138.61
2017-07-06T05:22:40.108Z,101133.64
2017-07-06T05:25:06.491Z,101135.23
2017-07-06T05:27:32.855Z,101127.61
2017-07-06T05:29:59.192Z,101127.96
2017-07-06T05:32:25.537Z,101125.69
2017-07-06T05:34:51.901Z,101127.44
2017-07-06T05:37:18.271Z,101124.70
2017-07-06T05:39:44.632Z,101127.70
2017-07-06T05:42:11.033Z,101127.12
2017-07-06T05:44:37.429Z,101131.42
2017-07-06T05:47:03.791Z,101126.97
2017-07-06T05:49:30.159Z,101125.92
2017-07-06T05:51:56.519Z,101122.67
2017-07-06T05:54:22.934Z,101125.46
2017-07-06T05:56:49.319Z,101125.36
2017-07-06T05:59:15.757Z,101126.42
2017-07-06T06:01:42.217Z,101123.95
2017-07-06T06:04:08.650Z,101121.95
2017-07-06T06:06:35.103Z,101126.14
2017-07-06T06:09:01.471Z,101130.91
2017-07-06T06:11:27.864Z,101129.91
2017-07-06T06:13:54.224Z,101126.31
2017-07-06T06:16:20.636Z,101126.02
2017-07-06T06:18:47.077Z,101136.34
2017-07-06T06:21:22.516Z,101131.72
2017-07-06T06:23:51.065Z,101129.18
2017-07-06T06:26:17.529Z,101129.27
2017-07-06T06:28:43.906Z,101132.58
2017-07-06T06:31:11.160Z,101128.83
2017-07-06T06:33:37.502Z,101124.34
2017-07-06T06:36:03.875Z,101129.61
2017-07-06T06:38:30.223Z,101124.89
2017-07-06T06:40:56.600Z,101131.48
2017-07-06T06:43:22.947Z,101136.05
2017-07-06T06:45:49.345Z,101132.23
2017-07-06T06:48:15.712Z,101133.22
2017-07-06T06:50:42.081Z,101137.52
2017-07-06T06:53:08.465Z,101129.27
2017-07-06T06:55:35.053Z,101122.64
2017-07-06T06:58:01.410Z,101135.30
2017-07-06T07:00:27.763Z,101133.16
2017-07-06T07:02:54.126Z,101136.51
2017-07-06T07:05:20.523Z,101130.81
2017-07-06T07:07:46.900Z,101130.34
2017-07-06T07:10:13.289Z,101136.30
2017-07-06T07:12:39.709Z,101133.06
2017-07-06T07:15:06.115Z,101131.84
2017-07-06T07:17:32.489Z,101131.90
2017-07-06T07:19:58.819Z,101135.70
2017-07-06T07:22:25.158Z,101135.19
2017-07-06T07:24:51.512Z,101133.03
2017-07-06T07:27:17.902Z,101132.48
2017-07-06T07:29:44.493Z,101136.25
2017-07-06T07:32:10.851Z,101129.22
2017-07-06T07:34:37.210Z,101136.34
2017-07-06T07:37:03.578Z,101132.41
2017-07-06T07:39:29.966Z,101131.19
2017-07-06T07:41:56.325Z,101132.97
2017-07-06T07:44:22.704Z,101141.00
2017-07-06T07:46:49.128Z,101130.83
2017-07-06T07:49:15.564Z,101128.25
2017-07-06T07:51:41.926Z,101132.17
2017-07-06T07:54:08.273Z,101138.73
2017-07-06T07:56:34.657Z,101138.28
2017-07-06T07:59:01.062Z,101133.47
2017-07-06T08:01:27.408Z,101133.34
2017-07-06T08:03:53.790Z,101136.77
2017-07-06T08:06:20.185Z,101134.81
2017-07-06T08:08:46.543Z,101134.63
2017-07-06T08:11:12.946Z,101130.21
2017-07-06T08:13:39.325Z,101128.08
2017-07-06T08:16:06.122Z,101134.86
2017-07-06T08:18:32.815Z,101130.61
2017-07-06T08:20:59.204Z,101125.49
2017-07-06T08:23:25.568Z,101129.02
2017-07-06T08:25:51.929Z,101129.13
2017-07-06T08:28:18.312Z,101121.64
2017-07-06T08:30:44.694Z,101128.55
2017-07-06T08:33:11.091Z,101118.94
2017-07-06T08:35:37.459Z,101114.20
2017-07-06T08:38:03.836Z,101111.80
2017-07-06T08:40:30.534Z,101113.34
2017-07-06T08:42:56.891Z,101112.73
2017-07-06T08:45:23.290Z,101104.77
2017-07-06T08:47:49.723Z,101110.65
2017-07-06T08:50:16.085Z,101098.69
2017-07-06T08:52:42.470Z,101089.22
2017-07-06T08:55:08.869Z,101083.73
2017-07-06T08:57:35.224Z,101086.11
2017-07-06T09:00:01.618Z,101081.98
2017-07-06T09:02:28.039Z,101073.89
2017-07-06T09:04:54.381Z,101079.36
2017-07-06T09:07:20.797Z,101068.61
2017-07-06T09:09:47.157Z,101065.88
2017-07-06T09:12:13.570Z,101051.27
2017-07-06T09:14:39.993Z,101053.64
2017-07-06T09:17:06.408Z,101054.02
2017-07-06T09:19:32.877Z,101051.02
2017-07-06T09:21:59.286Z,101051.79
2017-07-06T09:24:25.669Z,101040.25
2017-07-06T09:26:52.031Z,101045.89
2017-07-06T09:29:18.457Z,101044.56
2017-07-06T09:31:44.849Z,101050.39
2017-07-06T09:34:11.226Z,101058.31
2017-07-06T09:36:37.613Z,101052.74
2017-07-06T09:39:04.104Z,101061.15
2017-07-06T09:41:30.449Z,101061.31
2017-07-06T09:43:56.873Z,101063.61
2017-07-06T09:46:23.256Z,101065.55
2017-07-06T09:48:49.618Z,101067.30
2017-07-06T09:51:15.969Z,101059.97
2017-07-06T09:53:42.355Z,101049.69
2017-07-06T09:56:08.725Z,101041.92
2017-07-06T09:58:35.093Z,101048.11
2017-07-06T10:01:01.462Z,101040.20
2017-07-06T10:03:27.817Z,101026.22
2017-07-06T10:05:54.210Z,101032.30
2017-07-06T10:08:20.583Z,101026.73
2017-07-06T10:10:46.961Z,101023.22
2017-07-06T10:13:13.316Z,101026.72
2017-07-06T10:15:39.695Z,101032.27
2017-07-06T10:18:06.045Z,101030.58
2017-07-06T10:20:32.415Z,101031.34
2017-07-06T10:22:58.792Z,101018.68
2017-07-06T10:25:25.156Z,101019.73
2017-07-06T10:27:51.570Z,101021.90
2017-07-06T10:30:17.921Z,101020.56
2017-07-06T10:32:44.317Z,101023.87
2017-07-06T10:35:10.674Z,101013.62
2017-07-06T10:37:37.022Z,101017.09
2017-07-06T10:40:03.388Z,101025.02
2017-07-06T10:42:29.783Z,101020.28
2017-07-06T10:44:56.169Z,101016.67
2017-07-06T10:47:22.571Z,101021.98
2017-07-06T10:49:48.952Z,101029.66
2017-07-06T10:52:15.301Z,101019.78
2017-07-06T10:54:41.686Z,101018.80
2017-07-06T10:57:08.077Z,101022.27
2017-07-06T10:59:34.445Z,101021.62
2017-07-06T11:02:00.794Z,101013.78
2017-07-06T11:04:27.158Z,101015.49
2017-07-06T11:06:53.517Z,101015.97
2017-07-06T11:09:19.900Z,101012.69
2017-07-06T11:11:46.279Z,101013.39
2017-07-06T11:14:12.713Z,101015.62
2017-07-06T11:16:39.111Z,101021.94
2017-07-06T11:19:05.494Z,101020.86
2017-07-06T11:21:31.871Z,101022.86
2017-07-06T11:23:58.262Z,101013.66
2017-07-06T11:26:24.667Z,101009.91
2017-07-06T11:28:51.300Z,100999.86
2017-07-06T11:31:17.777Z,100996.92
2017-07-06T11:33:44.160Z,100998.42
2017-07-06T11:36:10.547Z,100994.03
2017-07-06T11:38:36.942Z,101003.56
2017-07-06T11:41:03.323Z,100998.41
2017-07-06T11:43:29.729Z,100991.32
2017-07-06T11:45:56.149Z,101002.95
2017-07-06T11:48:22.512Z,101003.86
2017-07-06T11:50:48.888Z,101005.95
2017-07-06T11:53:15.323Z,101001.53
2017-07-06T11:55:41.715Z,101007.61
2017-07-06T11:58:08.109Z,101005.73
2017-07-06T12:00:34.527Z,100999.79
2017-07-06T12:03:00.899Z,100997.51
2017-07-06T12:05:27.292Z,100993.44
2017-07-06T12:07:53.687Z,100987.27
2017-07-06T12:10:20.100Z,100989.52
2017-07-06T12:12:46.503Z,100982.97
2017-07-06T12:15:12.951Z,100982.70
2017-07-06T12:17:39.334Z,100982.59
2017-07-06T12:20:05.696Z,100976.49
2017-07-06T12:22:32.052Z,100975.55
2017-07-06T12:24:58.473Z,100978.22
2017-07-06T12:27:24.931Z,100979.44
2017-07-06T12:29:51.429Z,100975.30
2017-07-06T12:32:17.857Z,100965.67
2017-07-06T12:34:44.299Z,100968.78
2017-07-06T12:37:10.659Z,100968.81
2017-07-06T12:39:37.131Z,100958.11
2017-07-06T12:42:03.517Z,100956.95
2017-07-06T12:44:29.909Z,100960.62
2017-07-06T12:46:56.349Z,100964.72
2017-07-06T12:49:22.877Z,100960.83
2017-07-06T12:51:49.489Z,100966.21
2017-07-06T12:54:15.873Z,100967.94
2017-07-06T12:56:42.258Z,100956.33
2017-07-06T12:59:08.668Z,100955.22
2017-07-06T13:01:35.066Z,100950.26
2017-07-06T13:04:01.442Z,100946.51
2017-07-06T13:06:27.835Z,100940.58
2017-07-06T13:08:54.249Z,100938.21
2017-07-06T13:11:20.716Z,100939.20
2017-07-06T13:13:47.084Z,100926.67
2017-07-06T13:16:13.557Z,100929.26
2017-07-06T13:18:39.967Z,100919.38
2017-07-06T13:21:07.317Z,100921.58
2017-07-06T13:23:33.705Z,100913.73
2017-07-06T13:26:00.192Z,100904.71
2017-07-06T13:28:26.561Z,100901.50
2017-07-06T13:30:52.931Z,100904.02
2017-07-06T13:33:19.325Z,100907.09
2017-07-06T13:35:45.810Z,100905.95
2017-07-06T13:38:12.241Z,100903.64
2017-07-06T13:40:38.589Z,100897.64
2017-07-06T13:43:05.567Z,100906.39
2017-07-06T13:45:31.948Z,100904.91
2017-07-06T13:47:58.461Z,100896.47
2017-07-06T13:50:24.860Z,100889.56
2017-07-06T13:52:51.260Z,100884.18
2017-07-06T13:55:17.680Z,100884.95
2017-07-06T13:57:44.087Z,100888.30
2017-07-06T14:00:10.510Z,100886.67
2017-07-06T14:02:36.962Z,100890.55
2017-07-06T14:05:05.787Z,100891.26
2017-07-06T14:07:32.291Z,100893.14
2017-07-06T14:09:58.770Z,100885.69
2017-07-06T14:12:25.168Z,100888.07
2017-07-06T14:14:51.612Z,100884.09
2017-07-06T14:17:18.012Z,100887.90
2017-07-06T14:19:44.411Z,100883.92
2017-07-06T14:22:10.796Z,100878.14
2017-07-06T14:24:40.861Z,100873.58
2017-07-06T14:27:07.322Z,100875.00
2017-07-06T14:29:44.631Z,100873.37
2017-07-06T14:32:13.003Z,100869.88
2017-07-06T14:34:39.406Z,100864.63
2017-07-06T14:37:06.621Z,100865.05
2017-07-06T14:39:33.342Z,100864.43
2017-07-06T14:41:59.735Z,100867.12
2017-07-06T14:44:26.170Z,100860.84
2017-07-06T14:46:52.603Z,100860.22
2017-07-06T14:49:18.985Z,100861.97
2017-07-06T14:51:46.260Z,100864.06
2017-07-06T14:54:15.465Z,100868.77
2017-07-06T14:56:42.107Z,100865.66
2017-07-06T14:59:09.575Z,100857.24
2017-07-06T15:01:36.535Z,100863.02
2017-07-06T15:04:02.925Z,100855.68
2017-07-06T15:06:29.340Z,100850.27
2017-07-06T15:08:55.706Z,100849.31
2017-07-06T15:11:22.061Z,100838.88
2017-07-06T15:13:48.405Z,100833.97
2017-07-06T15:16:14.944Z,100828.72
2017-07-06T15:18:47.578Z,100843.14
2017-07-06T15:21:14.795Z,100841.36
2017-07-06T15:23:45.170Z,100843.08
2017-07-06T15:26:17.383Z,100840.94
2017-07-06T15:28:57.437Z,100838.66
2017-07-06T15:31:24.718Z,100825.02
2017-07-06T15:33:51.260Z,100816.47
2017-07-06T15:36:19.443Z,100796.83
2017-07-06T15:38:46.077Z,100801.18
2017-07-06T15:41:13.220Z,100791.23
2017-07-06T15:43:39.852Z,100795.95
2017-07-06T15:46:06.262Z,100794.56
2017-07-06T15:48:32.800Z,100793.04
2017-07-06T15:50:59.427Z,100804.00
2017-07-06T15:53:25.935Z,100807.48
2017-07-06T15:55:52.342Z,100813.75
2017-07-06T15:58:18.970Z,100825.27
2017-07-06T16:00:45.507Z,100832.58
2017-07-06T16:03:11.927Z,100843.47
2017-07-06T16:05:38.287Z,100842.99
2017-07-06T16:08:05.518Z,100834.34
2017-07-06T16:10:31.992Z,100818.33
2017-07-06T16:12:58.414Z,100804.47
2017-07-06T16:15:24.818Z,100793.21
2017-07-06T16:17:51.190Z,100793.30
2017-07-06T16:20:17.557Z,100787.67
2017-07-06T16:22:43.965Z,100777.96
2017-07-06T16:25:12.301Z,100779.61
2017-07-06T16:27:38.680Z,100777.64
2017-07-06T16:30:05.198Z,100775.78
2017-07-06T16:32:32.507Z,100770.58
2017-07-06T16:34:58.886Z,100770.51
2017-07-06T16:37:25.287Z,100763.84
2017-07-06T16:39:51.731Z,100772.63
2017-07-06T16:42:18.188Z,100766.81
2017-07-06T16:44:44.645Z,100768.41
2017-07-06T16:47:11.253Z,100759.07
2017-07-06T16:49:37.673Z,100759.73
2017-07-06T16:52:04.803Z,100755.02
2017-07-06T16:54:31.291Z,100765.63
2017-07-06T16:56:57.663Z,100770.61
2017-07-06T16:59:24.630Z,100770.08
2017-07-06T17:01:50.991Z,100774.76
2017-07-06T17:04:17.411Z,100767.98
2017-07-06T17:06:49.428Z,100778.93
2017-07-06T17:09:15.792Z,100780.85
2017-07-06T17:11:42.205Z,100778.34
2017-07-06T17:14:08.580Z,100776.77
2017-07-06T17:16:34.958Z,100783.22
2017-07-06T17:19:01.413Z,100786.21
2017-07-06T17:21:27.828Z,100787.95
2017-07-06T17:23:54.679Z,100795.44
2017-07-06T17:26:21.157Z,100783.30
2017-07-06T17:28:47.659Z,100772.20
2017-07-06T17:31:14.063Z,100764.95
2017-07-06T17:33:41.620Z,100760.87
2017-07-06T17:36:08.370Z,100751.63
2017-07-06T17:38:34.885Z,100748.71
2017-07-06T17:41:01.441Z,100753.40
2017-07-06T17:43:30.730Z,100757.31
2017-07-06T17:45:57.160Z,100759.99
2017-07-06T17:48:23.549Z,100753.80
2017-07-06T17:50:49.928Z,100753.01
2017-07-06T17:53:16.329Z,100742.46
2017-07-06T17:55:42.693Z,100730.61
2017-07-06T17:58:09.087Z,100731.05
2017-07-06T18:00:35.477Z,100739.38
2017-07-06T18:03:01.930Z,100739.14
2017-07-06T18:05:28.311Z,100744.67
2017-07-06T18:07:54.702Z,100744.75
2017-07-06T18:10:21.038Z,100753.86
2017-07-06T18:12:47.408Z,100762.04
2017-07-06T18:15:13.813Z,100765.61
2017-07-06T18:17:40.190Z,100771.86
2017-07-06T18:20:06.574Z,100777.76
2017-07-06T18:22:32.957Z,100779.35
2017-07-06T18:24:59.331Z,100766.86
2017-07-06T18:27:25.713Z,100769.16
2017-07-06T18:29:52.920Z,100774.69
2017-07-06T18:32:19.294Z,100778.61
2017-07-06T18:34:45.706Z,100776.34
2017-07-06T18:37:12.120Z,100783.03
2017-07-06T18:39:38.557Z,100794.75
2017-07-06T18:42:04.955Z,100797.75
2017-07-06T18:44:31.354Z,100797.92
2017-07-06T18:46:58.078Z,100796.89
2017-07-06T18:49:24.444Z,100792.05
2017-07-06T18:51:50.895Z,100787.78
2017-07-06T18:54:17.234Z,100785.50
2017-07-06T18:56:43.570Z,100799.58
2017-07-06T18:59:09.981Z,100803.37
2017-07-06T19:01:36.374Z,100808.27
2017-07-06T19:04:02.728Z,100799.85
2017-07-06T19:06:29.138Z,100791.88
2017-07-06T19:08:55.550Z,100792.16
2017-07-06T19:11:21.950Z,100792.84
2017-07-06T19:13:48.353Z,100788.86
2017-07-06T19:16:14.741Z,100785.89
2017-07-06T19:18:41.094Z,100771.02
2017-07-06T19:21:07.507Z,100762.59
2017-07-06T19:23:33.901Z,100753.23
2017-07-06T19:26:01.826Z,100747.27
2017-07-06T19:28:29.677Z,100747.54
2017-07-06T19:30:56.123Z,100738.23
2017-07-06T19:33:22.499Z,100743.64
2017-07-06T19:35:48.854Z,100739.56
2017-07-06T19:38:15.252Z,100733.65
2017-07-06T19:40:41.661Z,100730.12
2017-07-06T19:43:08.021Z,100720.41
2017-07-06T19:45:34.421Z,100721.84
2017-07-06T19:48:04.210Z,100721.11
2017-07-06T19:50:30.770Z,100713.31
2017-07-06T19:52:57.195Z,100700.95
2017-07-06T19:55:23.667Z,100686.41
2017-07-06T19:57:50.056Z,100697.84
2017-07-06T20:00:19.863Z,100705.03
2017-07-06T20:02:50.485Z,100705.81
2017-07-06T20:05:17.093Z,100704.70
2017-07-06T20:07:43.494Z,100696.90
2017-07-06T20:10:09.897Z,100693.88
2017-07-06T20:12:36.327Z,100701.19
2017-07-06T20:15:02.708Z,100703.87
2017-07-06T20:18:10.493Z,100715.55
2017-07-06T20:20:36.932Z,100706.95
2017-07-06T20:23:03.386Z,100709.73
2017-07-06T20:25:29.768Z,100706.16
2017-07-06T20:27:56.106Z,100710.72
2017-07-06T20:30:22.476Z,100704.53
2017-07-06T20:32:48.850Z,100707.77
2017-07-06T20:35:15.293Z,100710.55
2017-07-06T20:37:41.682Z,100705.45
2017-07-06T20:40:08.144Z,100709.20
2017-07-06T20:42:34.529Z,100714.04
2017-07-06T20:45:00.920Z,100707.39
2017-07-06T20:47:27.331Z,100708.40
2017-07-06T20:49:53.657Z,100708.56
2017-07-06T20:52:20.025Z,100702.13
2017-07-06T20:54:46.366Z,100694.73
2017-07-06T20:57:12.803Z,100688.39
2017-07-06T20:59:39.177Z,100677.30
2017-07-06T21:02:05.558Z,100673.27
2017-07-06T21:04:31.942Z,100665.95
2017-07-06T21:06:58.333Z,100656.06
2017-07-06T21:09:24.730Z,100679.88
2017-07-06T21:11:51.127Z,100705.23
2017-07-06T21:14:17.515Z,100747.98
2017-07-06T21:16:43.873Z,100794.23
2017-07-06T21:19:10.248Z,100818.64
2017-07-06T21:21:36.648Z,100827.50
2017-07-06T21:24:03.178Z,100834.88
2017-07-06T21:26:29.542Z,100847.76
2017-07-06T21:28:55.974Z,100860.20
2017-07-06T21:31:22.341Z,100846.98
2017-07-06T21:33:48.804Z,100856.67
2017-07-06T21:36:15.209Z,100873.84
2017-07-06T21:38:41.590Z,100880.25
2017-07-06T21:41:07.938Z,100901.25
2017-07-06T21:43:34.386Z,100905.63
2017-07-06T21:46:00.783Z,100924.50
2017-07-06T21:48:27.150Z,100950.67
2017-07-06T21:50:53.542Z,100942.79
2017-07-06T21:53:19.963Z,100930.80
2017-07-06T21:55:46.404Z,100901.93
2017-07-06T21:58:12.816Z,100875.77
2017-07-06T22:00:39.844Z,100863.91
2017-07-06T22:03:06.260Z,100872.67
2017-07-06T22:05:32.645Z,100887.27
2017-07-06T22:07:59.640Z,100892.43
2017-07-06T22:10:27.449Z,100900.07
2017-07-06T22:12:53.838Z,100927.86
2017-07-06T22:15:20.200Z,100946.72
2017-07-06T22:17:46.796Z,100960.02
2017-07-06T22:20:13.169Z,100967.42
2017-07-06T22:22:39.590Z,100956.56
2017-07-06T22:25:06.309Z,100946.00
2017-07-06T22:27:33.236Z,100944.25
2017-07-06T22:29:59.605Z,100924.52
2017-07-06T22:32:25.948Z,100907.00
2017-07-06T22:34:52.823Z,100914.33
2017-07-06T22:37:19.203Z,100937.11
2017-07-06T22:39:45.590Z,100951.86
2017-07-06T22:42:11.994Z,100981.30
2017-07-06T22:44:38.730Z,101005.58
2017-07-06T22:47:05.142Z,101026.02
2017-07-06T22:49:31.509Z,101019.45
2017-07-06T22:51:58.000Z,100966.75
2017-07-06T22:54:24.456Z,100939.76
2017-07-06T22:56:50.885Z,100941.36
2017-07-06T22:59:17.243Z,100970.25
2017-07-06T23:01:43.621Z,100972.28
2017-07-06T23:04:09.965Z,100937.98
2017-07-06T23:06:36.288Z,100903.88
2017-07-06T23:09:02.790Z,100883.63
2017-07-06T23:11:29.147Z,100851.88
2017-07-06T23:13:55.517Z,100824.75
2017-07-06T23:16:21.892Z,100799.69
2017-07-06T23:18:48.320Z,100781.03
2017-07-06T23:21:14.711Z,100774.86
2017-07-06T23:23:41.068Z,100764.83
2017-07-06T23:26:07.430Z,100761.12
2017-07-06T23:28:33.785Z,100755.55
2017-07-06T23:31:00.177Z,100743.77
2017-07-06T23:33:26.510Z,100747.94
2017-07-06T23:35:52.882Z,100745.04
2017-07-06T23:38:19.242Z,100747.58
2017-07-06T23:40:46.610Z,100748.13
2017-07-06T23:43:13.076Z,100751.02
2017-07-06T23:45:39.557Z,100755.82
2017-07-06T23:48:05.957Z,100749.81
2017-07-06T23:50:32.397Z,100762.41
2017-07-06T23:52:58.758Z,100754.88
2017-07-06T23:55:25.120Z,100746.98
2017-07-06T23:57:51.512Z,100739.48
